Airfield :
LOGIN :

Register | Disclaimer

   EN    FR    IT 

 










Legend :    VFR   Marginal VFR   IFR   Intensive IFR   Very Intensive IFR
Visi :
Ceiling :
>= 8 km
>= 3000ft
5 to 8 km
1000 to 3000 ft
1500m to 5 km
500 to 1000 ft
800 to 1500m
200 to 500 ft
< 800m
< 200 ft
Symbols :   Thunderstorms  Fog  Heavy snow  Heavy precipitations  Wind > 20 kt
SIGMETs :     Misc.  Thunderstorms  Icing  Turbulence  Mountain Waves  Volcanic Ashes






- Airport Elevation : -11 ft
- IATA code : AMS


EHAM - Amsterdam Schiphol

CURRENT METAR :
  • 230455Z 16003KT 5000 0600NW R18C/P2000N R27/0650N R18R/0450N R06/0800D BR BCFG FEW001 08/08 Q1009 BECMG 0800 FG

EXPIRED METARs :
  • 230425Z 16004KT 4000 0600NW R18C/1700U R27/1600D R18R/0550N R06/P2000N BR BCFG FEW001 08/08 Q1010 BECMG 0800 FG
  • 230355Z 17004KT 3500 0600NW R18C/P2000N R27/0550N R18R/0400N R06/P2000N BR BCFG FEW001 08/08 Q1010 BECMG 0800 FG
  • 230325Z 18004KT 4000 0800NW R18C/P2000N R27/0800D R18R/0600N R06/P2000N BR BCFG FEW002 07/07 Q1010 TEMPO 0800
  • 230255Z 15005KT 3700 BR MIFG FEW004 SCT017 08/08 Q1010 BECMG 2000
  • 230225Z 15003KT 6000 MIFG FEW005 SCT017 10/09 Q1010 BECMG 4000

TAF TAF EHAM
Valid from the 23 at 00:00 until the 24 at 06:00 UTC


222315Z 2300/2406 19005KT 8000 FEW030
BECMG 2300/2302 5000 BR MIFG
BECMG 2302/2304 2000
BECMG 2304/2306 0800 BCFG
PROB30 2305/2308 0300 FG VV001
BECMG 2308/2310 3000 BR BKN003
BECMG 2310/2313 22011KT 9999 NSW SCT025
PROB30
TEMPO 2321/2406 5000 SHRA BR BKN014 FEW020CB



MET'MAP, your aeronautical weather chart ! - Copyright ORBIFLY December 2007 - Disclaimer

ORBIFLY MET'MAP TEAM :

Programming & Development : Alexandra Zaïnal
Concept & original design : Baudouin d'Aumeries
Assistance for programming : Marc-Olivier Méhu
Technical & hardware support : Manuel Goepfert

Contact : metmap@orbifly.com




SOURCES & CREDITS :

   NOAA